This is the latest recevied weather packets stored in our database for station/object KQ4NAL. If no packets are shown the sender has not sent any weather packets the latest 10 day(s).
| Time | Temp. | Humidity | Pressure | Rain* | Wind** | Luminosity | Snow |
|---|---|---|---|---|---|---|---|
| 1777682794 | 7.22° C | 71% | 1017 hPa | 0 mm | - | 0 W/m² | - |
| 1777682491 | 7.78° C | 70% | 1017.1 hPa | 0 mm | - | 0 W/m² | - |
| 1777682189 | 7.78° C | 69% | 1017 hPa | 0 mm | - | 0 W/m² | - |
| 1777681886 | 8.33° C | 68% | 1016.7 hPa | 0 mm | - | 1 W/m² | - |
| 1777681582 | 8.89° C | 65% | 1016.4 hPa | 0 mm | - | 3 W/m² | - |
| 1777681280 | 9.44° C | 63% | 1016.1 hPa | 0 mm | - | 6 W/m² | - |
| 1777680977 | 9.44° C | 62% | 1016.1 hPa | 0 mm | - | 10 W/m² | - |
| 1777680674 | 9.44° C | 63% | 1015.9 hPa | 0 mm | - | 13 W/m² | - |
| 1777680373 | 10° C | 62% | 1015.9 hPa | 0 mm | - | 16 W/m² | - |
| 1777680070 | 10.56° C | 60% | 1015.9 hPa | 0 mm | - | 19 W/m² | - |
| 1777679765 | 10.56° C | 58% | 1016 hPa | 0 mm | - | 22 W/m² | - |
| 1777679461 | 11.11° C | 57% | 1016.2 hPa | 0 mm | - | 25 W/m² | - |
| 1777679157 | 11.11° C | 56% | 1016.4 hPa | 0 mm | - | 34 W/m² | - |
| 1777678855 | 11.67° C | 56% | 1016.4 hPa | 0 mm | - | 53 W/m² | - |
| 1777678553 | 11.11° C | 56% | 1016.5 hPa | 0 mm | - | 54 W/m² | - |
| 1777678249 | 11.11° C | 56% | 1016.5 hPa | 0 mm | - | 45 W/m² | - |
| 1777677946 | 11.11° C | 56% | 1016.6 hPa | 0 mm | - | 46 W/m² | - |
| 1777677643 | 11.11° C | 58% | 1016.6 hPa | 0 mm | - | 48 W/m² | - |
| 1777677341 | 11.67° C | 55% | 1016.4 hPa | 0 mm | - | 48 W/m² | - |
| 1777677039 | 11.67° C | 55% | 1016.2 hPa | 0 mm | - | 126 W/m² | - |
| 1777676738 | 12.22° C | 56% | 1016.1 hPa | 0 mm | - | 141 W/m² | - |
| 1777676435 | 12.22° C | 56% | 1016.3 hPa | 0 mm | - | 108 W/m² | - |
| 1777676132 | 12.22° C | 56% | 1016.2 hPa | 0 mm | - | 164 W/m² | - |
| 1777675828 | 12.22° C | 57% | 1016 hPa | 0 mm | - | 87 W/m² | - |
| 1777675526 | 11.67° C | 59% | 1016.3 hPa | 0 mm | - | 232 W/m² | - |
* Rain latest hour (hover to see other rain measurements)
** Current wind speed in m/s (hover to see current wind gust speed)